sensor_id;sensor_type;location;lat;lon;timestamp;temperature;humidity
32787;DHT22;19139;49.372;8.580;2024-02-28T00:01:50;6.60;99.90
32787;DHT22;19139;49.372;8.580;2024-02-28T00:04:17;6.60;99.90
32787;DHT22;19139;49.372;8.580;2024-02-28T00:06:44;6.60;99.90
32787;DHT22;19139;49.372;8.580;2024-02-28T00:09:13;6.40;99.90
32787;DHT22;19139;49.372;8.580;2024-02-28T00:11:43;6.40;99.90
32787;DHT22;19139;49.372;8.580;2024-02-28T00:14:13;6.30;99.90
32787;DHT22;19139;49.372;8.580;2024-02-28T00:16:44;6.30;99.90
32787;DHT22;19139;49.372;8.580;2024-02-28T00:19:12;6.20;99.90
32787;DHT22;19139;49.372;8.580;2024-02-28T00:21:39;6.20;99.90
32787;DHT22;19139;49.372;8.580;2024-02-28T00:24:07;6.20;99.90
32787;DHT22;19139;49.372;8.580;2024-02-28T00:26:34;6.20;99.90
32787;DHT22;19139;49.372;8.580;2024-02-28T00:29:00;6.10;99.90
32787;DHT22;19139;49.372;8.580;2024-02-28T00:31:27;6.20;99.90
32787;DHT22;19139;49.372;8.580;2024-02-28T00:33:54;6.10;99.90
32787;DHT22;19139;49.372;8.580;2024-02-28T00:36:20;6.10;99.90
32787;DHT22;19139;49.372;8.580;2024-02-28T00:38:47;6.00;99.90
32787;DHT22;19139;49.372;8.580;2024-02-28T00:41:14;6.00;99.90
32787;DHT22;19139;49.372;8.580;2024-02-28T00:43:41;6.00;99.90
32787;DHT22;19139;49.372;8.580;2024-02-28T00:46:07;6.00;99.90
32787;DHT22;19139;49.372;8.580;2024-02-28T00:48:39;6.00;99.90
32787;DHT22;19139;49.372;8.580;2024-02-28T00:51:06;5.90;99.90
32787;DHT22;19139;49.372;8.580;2024-02-28T00:53:34;5.80;99.90
32787;DHT22;19139;49.372;8.580;2024-02-28T00:56:01;5.90;99.90
32787;DHT22;19139;49.372;8.580;2024-02-28T00:58:27;5.90;99.90
32787;DHT22;19139;49.372;8.580;2024-02-28T01:00:56;6.00;99.90
32787;DHT22;19139;49.372;8.580;2024-02-28T01:03:24;5.80;99.90
32787;DHT22;19139;49.372;8.580;2024-02-28T01:05:51;5.80;99.90
32787;DHT22;19139;49.372;8.580;2024-02-28T01:08:18;5.90;99.90
32787;DHT22;19139;49.372;8.580;2024-02-28T01:10:45;5.90;99.90
32787;DHT22;19139;49.372;8.580;2024-02-28T01:13:12;6.00;99.90
32787;DHT22;19139;49.372;8.580;2024-02-28T01:15:41;6.00;99.90
32787;DHT22;19139;49.372;8.580;2024-02-28T01:18:09;5.90;99.90
32787;DHT22;19139;49.372;8.580;2024-02-28T01:20:37;5.90;99.90
32787;DHT22;19139;49.372;8.580;2024-02-28T01:23:04;5.80;99.90
32787;DHT22;19139;49.372;8.580;2024-02-28T01:25:31;5.70;99.90
32787;DHT22;19139;49.372;8.580;2024-02-28T01:27:58;5.70;99.90
32787;DHT22;19139;49.372;8.580;2024-02-28T01:30:25;5.70;99.90
32787;DHT22;19139;49.372;8.580;2024-02-28T01:32:52;5.60;99.90
32787;DHT22;19139;49.372;8.580;2024-02-28T01:35:18;5.60;99.90
32787;DHT22;19139;49.372;8.580;2024-02-28T01:37:45;5.60;99.90
32787;DHT22;19139;49.372;8.580;2024-02-28T01:40:12;5.60;99.90
32787;DHT22;19139;49.372;8.580;2024-02-28T01:42:39;5.60;99.90
32787;DHT22;19139;49.372;8.580;2024-02-28T01:45:06;5.50;99.90
32787;DHT22;19139;49.372;8.580;2024-02-28T01:47:36;5.50;99.90
32787;DHT22;19139;49.372;8.580;2024-02-28T01:50:04;5.40;99.90
32787;DHT22;19139;49.372;8.580;2024-02-28T01:52:31;5.40;99.90
32787;DHT22;19139;49.372;8.580;2024-02-28T01:54:58;5.40;99.90
32787;DHT22;19139;49.372;8.580;2024-02-28T01:57:25;5.40;99.90
32787;DHT22;19139;49.372;8.580;2024-02-28T01:59:53;5.30;99.90
32787;DHT22;19139;49.372;8.580;2024-02-28T02:02:22;5.30;99.90
32787;DHT22;19139;49.372;8.580;2024-02-28T02:04:49;5.30;99.90
32787;DHT22;19139;49.372;8.580;2024-02-28T02:07:19;5.40;99.90
32787;DHT22;19139;49.372;8.580;2024-02-28T02:09:46;5.30;99.90
32787;DHT22;19139;49.372;8.580;2024-02-28T02:12:13;5.40;99.90
32787;DHT22;19139;49.372;8.580;2024-02-28T02:14:40;5.30;99.90
32787;DHT22;19139;49.372;8.580;2024-02-28T02:17:06;5.20;99.90
32787;DHT22;19139;49.372;8.580;2024-02-28T02:19:33;5.20;99.90
32787;DHT22;19139;49.372;8.580;2024-02-28T02:22:00;5.10;99.90
32787;DHT22;19139;49.372;8.580;2024-02-28T02:24:29;5.20;99.90
32787;DHT22;19139;49.372;8.580;2024-02-28T02:26:59;5.20;99.90
32787;DHT22;19139;49.372;8.580;2024-02-28T02:29:26;5.30;99.90
32787;DHT22;19139;49.372;8.580;2024-02-28T02:31:54;5.20;99.90
32787;DHT22;19139;49.372;8.580;2024-02-28T02:34:21;5.20;99.90
32787;DHT22;19139;49.372;8.580;2024-02-28T02:36:48;5.20;99.90
32787;DHT22;19139;49.372;8.580;2024-02-28T02:39:15;5.20;99.90
32787;DHT22;19139;49.372;8.580;2024-02-28T02:41:41;5.30;99.90
32787;DHT22;19139;49.372;8.580;2024-02-28T02:44:08;5.30;99.90
32787;DHT22;19139;49.372;8.580;2024-02-28T02:46:35;5.20;99.90
32787;DHT22;19139;49.372;8.580;2024-02-28T02:49:02;5.30;99.90
32787;DHT22;19139;49.372;8.580;2024-02-28T02:51:28;5.30;99.90
32787;DHT22;19139;49.372;8.580;2024-02-28T02:53:55;5.20;99.90
32787;DHT22;19139;49.372;8.580;2024-02-28T02:56:22;5.20;99.90
32787;DHT22;19139;49.372;8.580;2024-02-28T02:58:48;5.30;99.90
32787;DHT22;19139;49.372;8.580;2024-02-28T03:01:15;5.30;99.90
32787;DHT22;19139;49.372;8.580;2024-02-28T03:03:42;5.30;99.90
32787;DHT22;19139;49.372;8.580;2024-02-28T03:06:09;5.30;99.90
32787;DHT22;19139;49.372;8.580;2024-02-28T03:08:36;5.30;99.90
32787;DHT22;19139;49.372;8.580;2024-02-28T03:11:03;5.30;99.90
32787;DHT22;19139;49.372;8.580;2024-02-28T03:13:33;5.20;99.90
32787;DHT22;19139;49.372;8.580;2024-02-28T03:16:00;5.20;99.90
32787;DHT22;19139;49.372;8.580;2024-02-28T03:18:26;5.10;99.90
32787;DHT22;19139;49.372;8.580;2024-02-28T03:20:53;5.10;99.90
32787;DHT22;19139;49.372;8.580;2024-02-28T03:23:20;5.10;99.90
32787;DHT22;19139;49.372;8.580;2024-02-28T03:25:47;4.90;99.90
32787;DHT22;19139;49.372;8.580;2024-02-28T03:28:13;5.00;99.90
32787;DHT22;19139;49.372;8.580;2024-02-28T03:30:40;4.90;99.90
32787;DHT22;19139;49.372;8.580;2024-02-28T03:33:07;4.70;99.90
32787;DHT22;19139;49.372;8.580;2024-02-28T03:35:34;4.60;99.90
32787;DHT22;19139;49.372;8.580;2024-02-28T03:38:01;4.80;99.90
32787;DHT22;19139;49.372;8.580;2024-02-28T03:40:27;4.70;99.90
32787;DHT22;19139;49.372;8.580;2024-02-28T03:42:54;4.70;99.90
32787;DHT22;19139;49.372;8.580;2024-02-28T03:45:22;4.60;99.90
32787;DHT22;19139;49.372;8.580;2024-02-28T03:47:49;4.50;99.90
32787;DHT22;19139;49.372;8.580;2024-02-28T03:50:16;4.60;99.90
32787;DHT22;19139;49.372;8.580;2024-02-28T03:52:42;4.60;99.90
32787;DHT22;19139;49.372;8.580;2024-02-28T03:55:09;4.60;99.90
32787;DHT22;19139;49.372;8.580;2024-02-28T03:57:36;4.50;99.90
32787;DHT22;19139;49.372;8.580;2024-02-28T04:00:03;4.60;99.90
32787;DHT22;19139;49.372;8.580;2024-02-28T04:02:31;4.50;99.90
32787;DHT22;19139;49.372;8.580;2024-02-28T04:04:57;4.50;99.90
32787;DHT22;19139;49.372;8.580;2024-02-28T04:07:24;4.40;99.90
32787;DHT22;19139;49.372;8.580;2024-02-28T04:09:51;4.20;99.90
32787;DHT22;19139;49.372;8.580;2024-02-28T04:12:17;4.20;99.90
32787;DHT22;19139;49.372;8.580;2024-02-28T04:14:44;4.20;99.90
32787;DHT22;19139;49.372;8.580;2024-02-28T04:17:11;4.20;99.90
32787;DHT22;19139;49.372;8.580;2024-02-28T04:19:37;4.10;99.90
32787;DHT22;19139;49.372;8.580;2024-02-28T04:22:05;4.10;99.90
32787;DHT22;19139;49.372;8.580;2024-02-28T04:24:32;4.10;99.90
32787;DHT22;19139;49.372;8.580;2024-02-28T04:26:59;4.20;99.90
32787;DHT22;19139;49.372;8.580;2024-02-28T04:29:26;4.10;99.90
32787;DHT22;19139;49.372;8.580;2024-02-28T04:31:52;4.20;99.90
32787;DHT22;19139;49.372;8.580;2024-02-28T04:34:19;4.20;99.90
32787;DHT22;19139;49.372;8.580;2024-02-28T04:36:46;4.00;99.90
32787;DHT22;19139;49.372;8.580;2024-02-28T04:39:12;3.90;99.90
32787;DHT22;19139;49.372;8.580;2024-02-28T04:41:39;3.90;99.90
32787;DHT22;19139;49.372;8.580;2024-02-28T04:44:06;3.90;99.90
32787;DHT22;19139;49.372;8.580;2024-02-28T04:46:34;3.90;99.90
32787;DHT22;19139;49.372;8.580;2024-02-28T04:49:00;3.80;99.90
32787;DHT22;19139;49.372;8.580;2024-02-28T04:51:27;3.80;99.90
32787;DHT22;19139;49.372;8.580;2024-02-28T04:53:54;3.80;99.90
32787;DHT22;19139;49.372;8.580;2024-02-28T04:56:21;3.70;99.90
32787;DHT22;19139;49.372;8.580;2024-02-28T04:58:48;3.70;99.90
32787;DHT22;19139;49.372;8.580;2024-02-28T05:01:14;3.70;99.90
32787;DHT22;19139;49.372;8.580;2024-02-28T05:03:46;3.70;99.90
32787;DHT22;19139;49.372;8.580;2024-02-28T05:06:12;3.60;99.90
32787;DHT22;19139;49.372;8.580;2024-02-28T05:08:39;3.50;99.90
32787;DHT22;19139;49.372;8.580;2024-02-28T05:11:06;3.60;99.90
32787;DHT22;19139;49.372;8.580;2024-02-28T05:13:33;3.50;99.90
32787;DHT22;19139;49.372;8.580;2024-02-28T05:15:59;3.40;99.90
32787;DHT22;19139;49.372;8.580;2024-02-28T05:18:26;3.70;99.90
32787;DHT22;19139;49.372;8.580;2024-02-28T05:20:53;3.80;99.90
32787;DHT22;19139;49.372;8.580;2024-02-28T05:23:20;3.80;99.90
32787;DHT22;19139;49.372;8.580;2024-02-28T05:25:46;3.90;99.90
32787;DHT22;19139;49.372;8.580;2024-02-28T05:28:13;3.80;99.90
32787;DHT22;19139;49.372;8.580;2024-02-28T05:30:40;3.50;99.90
32787;DHT22;19139;49.372;8.580;2024-02-28T05:33:11;3.30;99.90
32787;DHT22;19139;49.372;8.580;2024-02-28T05:35:38;3.50;99.90
32787;DHT22;19139;49.372;8.580;2024-02-28T05:38:04;3.60;99.90
32787;DHT22;19139;49.372;8.580;2024-02-28T05:40:31;3.60;99.90
32787;DHT22;19139;49.372;8.580;2024-02-28T05:42:58;3.50;99.90
32787;DHT22;19139;49.372;8.580;2024-02-28T05:45:25;3.40;99.90
32787;DHT22;19139;49.372;8.580;2024-02-28T05:47:51;3.40;99.90
32787;DHT22;19139;49.372;8.580;2024-02-28T05:50:18;3.30;99.90
32787;DHT22;19139;49.372;8.580;2024-02-28T05:52:45;3.20;99.90
32787;DHT22;19139;49.372;8.580;2024-02-28T05:55:12;3.30;99.90
32787;DHT22;19139;49.372;8.580;2024-02-28T05:57:38;3.10;99.90
32787;DHT22;19139;49.372;8.580;2024-02-28T06:00:06;3.00;99.90
32787;DHT22;19139;49.372;8.580;2024-02-28T06:02:37;3.10;99.90
32787;DHT22;19139;49.372;8.580;2024-02-28T06:05:04;3.00;99.90
32787;DHT22;19139;49.372;8.580;2024-02-28T06:07:31;3.00;99.90
32787;DHT22;19139;49.372;8.580;2024-02-28T06:09:57;2.90;99.90
32787;DHT22;19139;49.372;8.580;2024-02-28T06:12:24;3.20;99.90
32787;DHT22;19139;49.372;8.580;2024-02-28T06:14:51;3.00;99.90
32787;DHT22;19139;49.372;8.580;2024-02-28T06:17:18;3.00;99.90
32787;DHT22;19139;49.372;8.580;2024-02-28T06:19:44;2.80;99.90
32787;DHT22;19139;49.372;8.580;2024-02-28T06:22:11;2.80;99.90
32787;DHT22;19139;49.372;8.580;2024-02-28T06:24:37;2.80;99.90
32787;DHT22;19139;49.372;8.580;2024-02-28T06:27:04;2.80;99.90
32787;DHT22;19139;49.372;8.580;2024-02-28T06:29:35;2.80;99.90
32787;DHT22;19139;49.372;8.580;2024-02-28T06:32:02;3.00;99.90
32787;DHT22;19139;49.372;8.580;2024-02-28T06:34:28;3.00;99.90
32787;DHT22;19139;49.372;8.580;2024-02-28T06:36:55;3.00;99.90
32787;DHT22;19139;49.372;8.580;2024-02-28T06:39:22;3.00;99.90
32787;DHT22;19139;49.372;8.580;2024-02-28T06:41:49;3.00;99.90
32787;DHT22;19139;49.372;8.580;2024-02-28T06:44:18;3.00;99.90
32787;DHT22;19139;49.372;8.580;2024-02-28T06:46:45;3.00;99.90
32787;DHT22;19139;49.372;8.580;2024-02-28T06:49:12;3.00;99.90
32787;DHT22;19139;49.372;8.580;2024-02-28T06:51:38;3.10;99.90
32787;DHT22;19139;49.372;8.580;2024-02-28T06:54:05;3.10;99.90
32787;DHT22;19139;49.372;8.580;2024-02-28T06:56:32;3.30;99.90
32787;DHT22;19139;49.372;8.580;2024-02-28T06:58:58;3.30;99.90
32787;DHT22;19139;49.372;8.580;2024-02-28T07:01:25;3.30;99.90
32787;DHT22;19139;49.372;8.580;2024-02-28T07:03:52;3.50;99.90
32787;DHT22;19139;49.372;8.580;2024-02-28T07:06:19;3.60;99.90
32787;DHT22;19139;49.372;8.580;2024-02-28T07:08:46;3.70;99.90
32787;DHT22;19139;49.372;8.580;2024-02-28T07:11:13;3.80;99.90
32787;DHT22;19139;49.372;8.580;2024-02-28T07:13:41;3.90;99.90
32787;DHT22;19139;49.372;8.580;2024-02-28T07:16:07;4.00;99.90
32787;DHT22;19139;49.372;8.580;2024-02-28T07:18:34;4.10;99.90
32787;DHT22;19139;49.372;8.580;2024-02-28T07:21:01;4.00;99.90
32787;DHT22;19139;49.372;8.580;2024-02-28T07:23:28;4.10;99.90
32787;DHT22;19139;49.372;8.580;2024-02-28T07:25:54;4.30;99.90
32787;DHT22;19139;49.372;8.580;2024-02-28T07:28:21;4.30;99.90
32787;DHT22;19139;49.372;8.580;2024-02-28T07:30:48;4.40;99.90
32787;DHT22;19139;49.372;8.580;2024-02-28T07:33:15;4.50;99.90
32787;DHT22;19139;49.372;8.580;2024-02-28T07:35:49;4.60;99.90
32787;DHT22;19139;49.372;8.580;2024-02-28T07:38:16;4.70;99.90
32787;DHT22;19139;49.372;8.580;2024-02-28T07:40:48;4.80;99.90
32787;DHT22;19139;49.372;8.580;2024-02-28T07:43:15;4.80;99.90
32787;DHT22;19139;49.372;8.580;2024-02-28T07:45:42;4.90;99.90
32787;DHT22;19139;49.372;8.580;2024-02-28T07:48:08;5.00;99.90
32787;DHT22;19139;49.372;8.580;2024-02-28T07:50:35;5.00;99.90
32787;DHT22;19139;49.372;8.580;2024-02-28T07:53:02;4.90;99.90
32787;DHT22;19139;49.372;8.580;2024-02-28T07:55:29;5.00;99.90
32787;DHT22;19139;49.372;8.580;2024-02-28T07:57:55;5.00;99.90
32787;DHT22;19139;49.372;8.580;2024-02-28T08:00:22;5.10;99.90
32787;DHT22;19139;49.372;8.580;2024-02-28T08:02:49;5.20;99.90
32787;DHT22;19139;49.372;8.580;2024-02-28T08:05:16;5.20;99.90
32787;DHT22;19139;49.372;8.580;2024-02-28T08:07:44;5.30;99.90
32787;DHT22;19139;49.372;8.580;2024-02-28T08:10:11;5.50;99.90
32787;DHT22;19139;49.372;8.580;2024-02-28T08:12:38;5.50;99.90
32787;DHT22;19139;49.372;8.580;2024-02-28T08:15:05;5.50;99.90
32787;DHT22;19139;49.372;8.580;2024-02-28T08:17:32;5.60;99.90
32787;DHT22;19139;49.372;8.580;2024-02-28T08:19:59;5.70;99.90
32787;DHT22;19139;49.372;8.580;2024-02-28T08:22:26;5.80;99.90
32787;DHT22;19139;49.372;8.580;2024-02-28T08:24:52;5.90;99.90
32787;DHT22;19139;49.372;8.580;2024-02-28T08:27:19;6.00;99.90
32787;DHT22;19139;49.372;8.580;2024-02-28T08:29:47;6.00;99.90
32787;DHT22;19139;49.372;8.580;2024-02-28T08:32:14;5.90;99.90
32787;DHT22;19139;49.372;8.580;2024-02-28T08:34:47;5.80;99.90
32787;DHT22;19139;49.372;8.580;2024-02-28T08:37:13;6.00;99.90
32787;DHT22;19139;49.372;8.580;2024-02-28T08:39:40;6.10;99.90
32787;DHT22;19139;49.372;8.580;2024-02-28T08:42:07;6.10;99.90
32787;DHT22;19139;49.372;8.580;2024-02-28T08:44:33;6.30;99.90
32787;DHT22;19139;49.372;8.580;2024-02-28T08:47:00;6.30;99.90
32787;DHT22;19139;49.372;8.580;2024-02-28T08:49:29;6.20;99.90
32787;DHT22;19139;49.372;8.580;2024-02-28T08:51:57;6.30;99.90
32787;DHT22;19139;49.372;8.580;2024-02-28T08:54:24;6.40;99.90
32787;DHT22;19139;49.372;8.580;2024-02-28T08:56:51;6.10;99.90
32787;DHT22;19139;49.372;8.580;2024-02-28T08:59:28;6.20;99.90
32787;DHT22;19139;49.372;8.580;2024-02-28T09:01:55;6.30;99.90
32787;DHT22;19139;49.372;8.580;2024-02-28T09:04:22;6.40;99.90
32787;DHT22;19139;49.372;8.580;2024-02-28T09:06:48;6.40;99.90
32787;DHT22;19139;49.372;8.580;2024-02-28T09:09:15;6.60;99.90
32787;DHT22;19139;49.372;8.580;2024-02-28T09:11:43;6.70;99.90
32787;DHT22;19139;49.372;8.580;2024-02-28T09:14:10;6.70;99.90
32787;DHT22;19139;49.372;8.580;2024-02-28T09:16:36;6.80;99.90
32787;DHT22;19139;49.372;8.580;2024-02-28T09:19:04;6.90;99.90
32787;DHT22;19139;49.372;8.580;2024-02-28T09:21:31;6.90;99.90
32787;DHT22;19139;49.372;8.580;2024-02-28T09:23:57;7.00;99.90
32787;DHT22;19139;49.372;8.580;2024-02-28T09:26:24;6.90;99.90
32787;DHT22;19139;49.372;8.580;2024-02-28T09:28:52;6.90;99.90
32787;DHT22;19139;49.372;8.580;2024-02-28T09:31:19;7.10;99.90
32787;DHT22;19139;49.372;8.580;2024-02-28T09:33:45;7.20;99.90
32787;DHT22;19139;49.372;8.580;2024-02-28T09:36:13;7.20;99.90
32787;DHT22;19139;49.372;8.580;2024-02-28T09:38:41;7.20;99.90
32787;DHT22;19139;49.372;8.580;2024-02-28T09:41:14;7.30;99.90
32787;DHT22;19139;49.372;8.580;2024-02-28T09:43:41;7.40;99.90
32787;DHT22;19139;49.372;8.580;2024-02-28T09:46:09;7.40;99.90
32787;DHT22;19139;49.372;8.580;2024-02-28T09:48:41;7.70;99.90
32787;DHT22;19139;49.372;8.580;2024-02-28T09:51:08;7.90;99.90
32787;DHT22;19139;49.372;8.580;2024-02-28T09:53:36;8.00;99.90
32787;DHT22;19139;49.372;8.580;2024-02-28T09:56:04;8.00;99.90
32787;DHT22;19139;49.372;8.580;2024-02-28T09:58:32;7.80;99.90
32787;DHT22;19139;49.372;8.580;2024-02-28T10:01:02;7.70;99.90
32787;DHT22;19139;49.372;8.580;2024-02-28T10:03:31;7.60;99.90
32787;DHT22;19139;49.372;8.580;2024-02-28T10:05:59;7.80;99.90
32787;DHT22;19139;49.372;8.580;2024-02-28T10:08:31;8.10;99.90
32787;DHT22;19139;49.372;8.580;2024-02-28T10:10:58;8.10;99.90
32787;DHT22;19139;49.372;8.580;2024-02-28T10:13:25;8.30;99.90
32787;DHT22;19139;49.372;8.580;2024-02-28T10:15:53;8.40;99.90
32787;DHT22;19139;49.372;8.580;2024-02-28T10:18:20;8.30;99.90
32787;DHT22;19139;49.372;8.580;2024-02-28T10:20:47;8.30;99.90
32787;DHT22;19139;49.372;8.580;2024-02-28T10:23:14;8.10;99.90
32787;DHT22;19139;49.372;8.580;2024-02-28T10:25:45;8.20;99.90
32787;DHT22;19139;49.372;8.580;2024-02-28T10:28:23;8.30;99.90
32787;DHT22;19139;49.372;8.580;2024-02-28T10:30:49;8.50;99.90
32787;DHT22;19139;49.372;8.580;2024-02-28T10:33:16;8.80;99.90
32787;DHT22;19139;49.372;8.580;2024-02-28T10:35:44;9.10;99.90
32787;DHT22;19139;49.372;8.580;2024-02-28T10:38:12;9.50;99.90
32787;DHT22;19139;49.372;8.580;2024-02-28T10:40:40;9.00;99.90
32787;DHT22;19139;49.372;8.580;2024-02-28T10:43:10;9.10;99.90
32787;DHT22;19139;49.372;8.580;2024-02-28T10:45:38;9.60;99.90
32787;DHT22;19139;49.372;8.580;2024-02-28T10:48:26;9.90;99.90
32787;DHT22;19139;49.372;8.580;2024-02-28T10:50:53;9.80;99.90
32787;DHT22;19139;49.372;8.580;2024-02-28T10:53:33;10.00;99.90
32787;DHT22;19139;49.372;8.580;2024-02-28T10:56:03;10.10;99.90
32787;DHT22;19139;49.372;8.580;2024-02-28T10:58:51;10.20;99.90
32787;DHT22;19139;49.372;8.580;2024-02-28T11:01:19;10.30;99.90
32787;DHT22;19139;49.372;8.580;2024-02-28T11:03:48;10.50;99.90
32787;DHT22;19139;49.372;8.580;2024-02-28T11:06:19;10.60;99.90
32787;DHT22;19139;49.372;8.580;2024-02-28T11:08:49;10.60;99.90
32787;DHT22;19139;49.372;8.580;2024-02-28T11:11:20;10.60;99.90
32787;DHT22;19139;49.372;8.580;2024-02-28T11:13:54;10.60;99.90
32787;DHT22;19139;49.372;8.580;2024-02-28T11:16:32;10.80;99.90
32787;DHT22;19139;49.372;8.580;2024-02-28T11:19:00;11.00;99.90
32787;DHT22;19139;49.372;8.580;2024-02-28T11:21:28;11.00;99.90
32787;DHT22;19139;49.372;8.580;2024-02-28T11:23:59;11.30;99.90
32787;DHT22;19139;49.372;8.580;2024-02-28T11:26:26;11.40;99.90
32787;DHT22;19139;49.372;8.580;2024-02-28T11:28:57;11.20;99.90
32787;DHT22;19139;49.372;8.580;2024-02-28T11:31:24;11.10;99.90
32787;DHT22;19139;49.372;8.580;2024-02-28T11:33:50;11.10;99.90
32787;DHT22;19139;49.372;8.580;2024-02-28T11:36:17;11.00;99.90
32787;DHT22;19139;49.372;8.580;2024-02-28T11:38:44;10.90;99.90
32787;DHT22;19139;49.372;8.580;2024-02-28T11:41:11;11.10;99.90
32787;DHT22;19139;49.372;8.580;2024-02-28T11:43:37;11.30;99.90
32787;DHT22;19139;49.372;8.580;2024-02-28T11:46:17;11.50;99.90
32787;DHT22;19139;49.372;8.580;2024-02-28T11:48:45;11.80;99.90
32787;DHT22;19139;49.372;8.580;2024-02-28T11:51:12;11.70;99.90
32787;DHT22;19139;49.372;8.580;2024-02-28T11:53:39;11.80;99.90
32787;DHT22;19139;49.372;8.580;2024-02-28T11:56:05;11.60;99.90
32787;DHT22;19139;49.372;8.580;2024-02-28T11:58:33;11.60;99.90
32787;DHT22;19139;49.372;8.580;2024-02-28T12:01:00;11.70;99.90
32787;DHT22;19139;49.372;8.580;2024-02-28T12:03:26;11.70;99.90
32787;DHT22;19139;49.372;8.580;2024-02-28T12:05:55;11.90;99.90
32787;DHT22;19139;49.372;8.580;2024-02-28T12:08:22;11.90;99.90
32787;DHT22;19139;49.372;8.580;2024-02-28T12:10:51;11.80;99.90
32787;DHT22;19139;49.372;8.580;2024-02-28T12:13:18;11.90;99.90
32787;DHT22;19139;49.372;8.580;2024-02-28T12:15:45;12.10;99.90
32787;DHT22;19139;49.372;8.580;2024-02-28T12:18:14;12.00;99.90
32787;DHT22;19139;49.372;8.580;2024-02-28T12:20:41;12.00;99.90
32787;DHT22;19139;49.372;8.580;2024-02-28T12:23:08;12.30;99.90
32787;DHT22;19139;49.372;8.580;2024-02-28T12:25:35;12.30;99.90
32787;DHT22;19139;49.372;8.580;2024-02-28T12:28:03;12.40;99.90
32787;DHT22;19139;49.372;8.580;2024-02-28T12:30:39;12.40;99.90
32787;DHT22;19139;49.372;8.580;2024-02-28T12:33:06;12.80;99.90
32787;DHT22;19139;49.372;8.580;2024-02-28T12:35:33;12.90;99.90
32787;DHT22;19139;49.372;8.580;2024-02-28T12:38:00;12.60;99.90
32787;DHT22;19139;49.372;8.580;2024-02-28T12:40:26;12.50;99.90
32787;DHT22;19139;49.372;8.580;2024-02-28T12:42:53;12.50;99.90
32787;DHT22;19139;49.372;8.580;2024-02-28T12:45:20;12.50;99.90
32787;DHT22;19139;49.372;8.580;2024-02-28T12:47:46;12.50;99.90
32787;DHT22;19139;49.372;8.580;2024-02-28T12:50:16;13.00;99.90
32787;DHT22;19139;49.372;8.580;2024-02-28T12:52:43;13.10;99.90
32787;DHT22;19139;49.372;8.580;2024-02-28T12:55:10;13.30;99.90
32787;DHT22;19139;49.372;8.580;2024-02-28T12:57:37;13.10;99.90
32787;DHT22;19139;49.372;8.580;2024-02-28T13:00:05;13.50;99.90
32787;DHT22;19139;49.372;8.580;2024-02-28T13:02:34;13.70;99.90
32787;DHT22;19139;49.372;8.580;2024-02-28T13:05:01;13.70;99.90
32787;DHT22;19139;49.372;8.580;2024-02-28T13:07:28;13.50;99.90
32787;DHT22;19139;49.372;8.580;2024-02-28T13:09:56;14.20;99.90
32787;DHT22;19139;49.372;8.580;2024-02-28T13:12:23;14.10;98.90
32787;DHT22;19139;49.372;8.580;2024-02-28T13:14:50;14.20;98.70
32787;DHT22;19139;49.372;8.580;2024-02-28T13:17:16;14.10;98.50
32787;DHT22;19139;49.372;8.580;2024-02-28T13:19:46;14.30;99.10
32787;DHT22;19139;49.372;8.580;2024-02-28T13:22:13;14.70;98.40
32787;DHT22;19139;49.372;8.580;2024-02-28T13:24:39;15.00;97.30
32787;DHT22;19139;49.372;8.580;2024-02-28T13:27:06;14.80;96.30
32787;DHT22;19139;49.372;8.580;2024-02-28T13:29:34;14.80;96.50
32787;DHT22;19139;49.372;8.580;2024-02-28T13:32:01;15.30;95.70
32787;DHT22;19139;49.372;8.580;2024-02-28T13:34:28;15.80;94.60
32787;DHT22;19139;49.372;8.580;2024-02-28T13:36:56;15.30;94.00
32787;DHT22;19139;49.372;8.580;2024-02-28T13:39:23;17.30;92.70
32787;DHT22;19139;49.372;8.580;2024-02-28T13:41:50;19.20;90.30
32787;DHT22;19139;49.372;8.580;2024-02-28T13:44:18;20.90;84.70
32787;DHT22;19139;49.372;8.580;2024-02-28T13:46:50;20.90;81.00
32787;DHT22;19139;49.372;8.580;2024-02-28T13:49:18;21.90;78.80
32787;DHT22;19139;49.372;8.580;2024-02-28T13:51:46;21.70;77.00
32787;DHT22;19139;49.372;8.580;2024-02-28T13:54:14;22.20;76.30
32787;DHT22;19139;49.372;8.580;2024-02-28T13:56:42;21.50;75.80
32787;DHT22;19139;49.372;8.580;2024-02-28T13:59:08;20.00;76.80
32787;DHT22;19139;49.372;8.580;2024-02-28T14:01:36;20.20;78.40
32787;DHT22;19139;49.372;8.580;2024-02-28T14:04:03;20.20;77.60
32787;DHT22;19139;49.372;8.580;2024-02-28T14:06:30;20.20;77.60
32787;DHT22;19139;49.372;8.580;2024-02-28T14:08:57;19.80;79.50
32787;DHT22;19139;49.372;8.580;2024-02-28T14:11:24;19.90;79.30
32787;DHT22;19139;49.372;8.580;2024-02-28T14:13:50;19.40;77.80
32787;DHT22;19139;49.372;8.580;2024-02-28T14:16:17;18.10;79.90
32787;DHT22;19139;49.372;8.580;2024-02-28T14:18:46;18.00;82.90
32787;DHT22;19139;49.372;8.580;2024-02-28T14:21:13;18.40;81.90
32787;DHT22;19139;49.372;8.580;2024-02-28T14:23:40;18.30;81.50
32787;DHT22;19139;49.372;8.580;2024-02-28T14:26:08;18.60;82.00
32787;DHT22;19139;49.372;8.580;2024-02-28T14:28:34;19.20;79.60
32787;DHT22;19139;49.372;8.580;2024-02-28T14:31:01;19.40;80.10
32787;DHT22;19139;49.372;8.580;2024-02-28T14:33:28;19.70;79.30
32787;DHT22;19139;49.372;8.580;2024-02-28T14:35:55;20.30;78.00
32787;DHT22;19139;49.372;8.580;2024-02-28T14:38:22;20.10;77.40
32787;DHT22;19139;49.372;8.580;2024-02-28T14:40:48;19.40;78.90
32787;DHT22;19139;49.372;8.580;2024-02-28T14:43:15;19.90;77.50
32787;DHT22;19139;49.372;8.580;2024-02-28T14:45:42;20.10;76.00
32787;DHT22;19139;49.372;8.580;2024-02-28T14:48:09;19.40;75.90
32787;DHT22;19139;49.372;8.580;2024-02-28T14:50:35;19.70;76.80
32787;DHT22;19139;49.372;8.580;2024-02-28T14:53:02;19.40;77.30
32787;DHT22;19139;49.372;8.580;2024-02-28T14:55:29;19.20;77.70
32787;DHT22;19139;49.372;8.580;2024-02-28T14:57:56;18.80;79.20
32787;DHT22;19139;49.372;8.580;2024-02-28T15:00:23;18.60;79.90
32787;DHT22;19139;49.372;8.580;2024-02-28T15:02:50;18.20;78.30
32787;DHT22;19139;49.372;8.580;2024-02-28T15:05:20;17.90;80.20
32787;DHT22;19139;49.372;8.580;2024-02-28T15:07:47;15.90;83.70
32787;DHT22;19139;49.372;8.580;2024-02-28T15:10:15;15.00;87.70
32787;DHT22;19139;49.372;8.580;2024-02-28T15:12:41;14.40;89.20
32787;DHT22;19139;49.372;8.580;2024-02-28T15:15:09;14.30;90.20
32787;DHT22;19139;49.372;8.580;2024-02-28T15:17:37;13.90;90.70
32787;DHT22;19139;49.372;8.580;2024-02-28T15:20:04;13.80;91.20
32787;DHT22;19139;49.372;8.580;2024-02-28T15:22:34;13.60;91.40
32787;DHT22;19139;49.372;8.580;2024-02-28T15:25:01;13.30;91.40
32787;DHT22;19139;49.372;8.580;2024-02-28T15:27:27;13.00;92.00
32787;DHT22;19139;49.372;8.580;2024-02-28T15:29:55;13.20;91.90
32787;DHT22;19139;49.372;8.580;2024-02-28T15:32:22;13.10;92.30
32787;DHT22;19139;49.372;8.580;2024-02-28T15:34:49;13.00;92.50
32787;DHT22;19139;49.372;8.580;2024-02-28T15:37:15;12.90;92.60
32787;DHT22;19139;49.372;8.580;2024-02-28T15:39:42;12.90;92.60
32787;DHT22;19139;49.372;8.580;2024-02-28T15:42:11;12.90;93.30
32787;DHT22;19139;49.372;8.580;2024-02-28T15:44:39;13.00;92.90